Time;durP1;ratioP1;P1;durP2;ratioP2;P2;SDS_P1;SDS_P2;PMS_P1;PMS_P2;Temp;Humidity;BMP_temperature;BMP_pressure;BME280_temperature;BME280_humidity;BME280_pressure;Samples;Min_cycle;Max_cycle;Signal;HPM_P1;HPM_P2
2023/06/20 00:00:59;;;;;;;11.57;9.32;;;;;;;23.67;44.88;99576.53;4972948;28;20579;-83
2023/06/20 00:03:26;;;;;;;11.32;9.23;;;;;;;23.62;44.69;99581.63;4986919;28;20046;-82
2023/06/20 00:05:52;;;;;;;11.23;9.10;;;;;;;23.53;45.15;99568.22;4975165;28;20050;-81
2023/06/20 00:08:19;;;;;;;17.33;8.77;;;;;;;23.47;45.33;99568.09;4992223;28;20062;-80
2023/06/20 00:10:46;;;;;;;11.43;8.52;;;;;;;23.40;45.26;99570.66;5020712;23;20058;-78
2023/06/20 00:13:12;;;;;;;10.90;9.05;;;;;;;23.34;45.26;99572.19;4946281;28;20065;-78
2023/06/20 00:15:41;;;;;;;13.80;9.45;;;;;;;23.29;45.63;99574.53;4972392;28;20059;-78
2023/06/20 00:18:07;;;;;;;12.07;8.70;;;;;;;23.24;45.74;99571.53;4988476;28;20516;-78
2023/06/20 00:20:36;;;;;;;10.13;9.02;;;;;;;23.19;45.55;99569.38;4974242;28;20137;-78
2023/06/20 00:23:02;;;;;;;11.77;8.65;;;;;;;23.14;45.64;99566.38;4985649;28;20069;-78
2023/06/20 00:25:29;;;;;;;10.05;8.40;;;;;;;23.08;46.06;99567.06;4972139;28;20065;-78
2023/06/20 00:27:55;;;;;;;9.60;8.57;;;;;;;23.03;45.90;99570.28;4972601;28;20057;-78
2023/06/20 00:30:21;;;;;;;11.02;8.75;;;;;;;22.98;46.02;99569.94;4972383;28;20061;-78
2023/06/20 00:32:48;;;;;;;8.90;7.82;;;;;;;22.93;46.31;99570.50;4956136;28;20081;-78
2023/06/20 00:35:14;;;;;;;10.02;7.90;;;;;;;22.90;46.28;99569.00;4991370;28;20525;-78
2023/06/20 00:37:41;;;;;;;10.00;7.88;;;;;;;22.87;46.29;99573.84;4991519;28;20089;-78
2023/06/20 00:40:07;;;;;;;8.80;7.90;;;;;;;22.84;46.30;99566.16;4990008;28;20058;-80
2023/06/20 00:42:34;;;;;;;11.98;8.15;;;;;;;22.82;46.44;99571.69;4991712;28;20116;-80
2023/06/20 00:45:00;;;;;;;12.05;8.10;;;;;;;22.81;46.50;99571.88;4975014;28;20058;-80
2023/06/20 00:47:27;;;;;;;11.05;8.30;;;;;;;22.81;46.59;99569.19;4971971;28;20059;-79
2023/06/20 00:49:55;;;;;;;10.13;9.05;;;;;;;22.80;46.63;99571.03;4972009;28;20054;-79
2023/06/20 00:52:22;;;;;;;12.30;8.15;;;;;;;22.81;46.70;99569.19;4971890;28;20050;-79
2023/06/20 00:54:49;;;;;;;9.07;8.18;;;;;;;22.81;46.83;99571.88;4983048;28;20077;-79
2023/06/20 00:57:17;;;;;;;9.98;7.82;;;;;;;22.78;46.85;99565.84;4991342;28;20062;-79
2023/06/20 00:59:45;;;;;;;11.95;8.05;;;;;;;22.78;46.91;99565.00;4991489;28;20398;-79
2023/06/20 01:02:13;;;;;;;9.25;8.23;;;;;;;22.77;46.87;99561.47;4991180;28;20432;-79
2023/06/20 01:04:45;;;;;;;10.57;8.77;;;;;;;22.73;47.35;99560.13;4982793;28;20137;-79
2023/06/20 01:07:33;;;;;;;13.40;8.13;;;;;;;22.70;47.19;99559.66;4971669;28;20524;-79
2023/06/20 01:10:11;;;;;;;12.50;8.13;;;;;;;22.69;47.31;99561.50;4971676;28;20059;-79
2023/06/20 01:13:00;;;;;;;10.43;7.93;;;;;;;22.70;47.04;99559.66;4972046;28;20062;-79
2023/06/20 01:15:40;;;;;;;13.68;8.50;;;;;;;22.64;47.35;99555.81;4976948;28;20062;-79
2023/06/20 01:18:31;;;;;;;9.57;8.20;;;;;;;22.63;47.16;99560.34;4991226;28;20062;-79
2023/06/20 01:21:07;;;;;;;8.27;7.47;;;;;;;22.62;47.39;99565.88;4990116;28;20062;-79
2023/06/20 01:23:44;;;;;;;8.63;7.75;;;;;;;22.58;47.46;99562.69;4990958;28;20047;-79
2023/06/20 01:26:51;;;;;;;11.63;8.10;;;;;;;22.57;47.58;99562.88;4990990;28;20497;-79
2023/06/20 01:29:27;;;;;;;11.68;8.15;;;;;;;22.56;47.69;99554.00;4957305;28;20062;-78
2023/06/20 01:31:58;;;;;;;10.75;8.00;;;;;;;22.52;47.65;99553.47;4984290;28;20055;-78
2023/06/20 01:34:28;;;;;;;10.25;8.23;;;;;;;22.49;47.70;99559.16;4971470;28;20061;-78
2023/06/20 01:37:00;;;;;;;9.40;8.20;;;;;;;22.44;47.92;99556.16;4971289;28;20524;-78
2023/06/20 01:39:34;;;;;;;12.57;8.43;;;;;;;22.42;48.00;99554.66;4971502;28;20062;-78
2023/06/20 01:42:04;;;;;;;10.20;8.15;;;;;;;22.39;48.13;99556.66;4975725;28;20054;-78
2023/06/20 01:44:33;;;;;;;12.18;9.00;;;;;;;22.36;48.00;99554.31;4981935;28;20059;-79
2023/06/20 01:47:02;;;;;;;10.18;8.50;;;;;;;22.34;48.01;99559.03;4982563;28;20504;-78
2023/06/20 01:49:30;;;;;;;9.30;8.38;;;;;;;22.33;47.99;99553.84;4973570;28;20069;-78
2023/06/20 01:51:57;;;;;;;9.43;8.40;;;;;;;22.29;48.28;99552.50;4989304;28;20058;-79
2023/06/20 01:54:27;;;;;;;11.35;9.02;;;;;;;22.25;48.46;99557.38;4971306;28;20059;-79
2023/06/20 01:56:57;;;;;;;9.70;8.20;;;;;;;22.24;48.41;99556.50;4971073;28;20063;-79
2023/06/20 01:59:25;;;;;;;11.73;9.13;;;;;;;22.21;48.52;99556.84;4971185;28;20117;-78
2023/06/20 02:01:54;;;;;;;11.85;8.70;;;;;;;22.20;48.73;99557.03;4954192;28;20494;-79
2023/06/20 02:04:24;;;;;;;9.55;8.23;;;;;;;22.17;48.96;99554.69;4981583;28;20051;-78
2023/06/20 02:06:51;;;;;;;12.75;9.43;;;;;;;22.15;48.98;99546.81;4993091;28;20054;-78
2023/06/20 02:09:18;;;;;;;10.68;9.07;;;;;;;22.13;48.94;99543.47;4994086;28;20054;-78
2023/06/20 02:11:46;;;;;;;11.95;9.18;;;;;;;22.11;49.06;99542.78;4994087;28;20062;-79
2023/06/20 02:14:14;;;;;;;9.82;8.60;;;;;;;22.07;49.05;99536.94;4979664;28;20051;-79
2023/06/20 02:16:41;;;;;;;12.75;9.25;;;;;;;22.06;49.20;99535.28;4974699;28;20077;-79
2023/06/20 02:19:08;;;;;;;11.35;8.75;;;;;;;22.04;49.20;99531.91;4974631;28;20154;-78
2023/06/20 02:21:37;;;;;;;9.63;8.63;;;;;;;22.02;49.93;99533.94;4974631;28;20069;-79
2023/06/20 02:24:10;;;;;;;10.60;9.30;;;;;;;22.00;49.84;99546.66;4984584;28;20509;-78
2023/06/20 02:26:42;;;;;;;15.57;9.55;;;;;;;21.97;49.74;99539.78;4993663;28;20080;-78
2023/06/20 02:29:09;;;;;;;9.45;8.52;;;;;;;21.96;49.69;99535.44;4994048;28;20054;-78
2023/06/20 02:31:40;;;;;;;11.73;8.95;;;;;;;21.93;50.23;99538.44;4994287;28;20066;-79
2023/06/20 02:34:11;;;;;;;14.82;10.00;;;;;;;21.90;50.06;99538.78;4985805;28;20347;-78
2023/06/20 02:36:38;;;;;;;10.05;9.05;;;;;;;21.86;49.88;99530.22;4974323;28;20065;-78
2023/06/20 02:39:05;;;;;;;12.48;8.95;;;;;;;21.82;50.18;99526.22;4974169;28;20421;-79
2023/06/20 02:41:32;;;;;;;10.68;9.57;;;;;;;21.80;50.16;99524.72;4974579;28;20062;-78
2023/06/20 02:43:58;;;;;;;11.65;9.35;;;;;;;21.77;50.43;99527.72;4978231;28;20511;-78
2023/06/20 02:46:46;;;;;;;10.70;8.80;;;;;;;21.68;50.62;99524.19;4993586;28;20051;-79
2023/06/20 02:49:19;;;;;;;11.48;9.43;;;;;;;21.68;50.99;99525.00;4976244;28;20066;-78
2023/06/20 02:52:21;;;;;;;11.18;8.95;;;;;;;21.63;51.13;99516.63;4993841;28;20145;-78
2023/06/20 02:55:07;;;;;;;10.38;9.27;;;;;;;21.59;51.24;99523.31;4985066;28;20068;-78
2023/06/20 02:57:38;;;;;;;11.00;8.82;;;;;;;21.58;51.29;99521.66;4973845;28;20051;-78
2023/06/20 03:00:09;;;;;;;11.55;9.63;;;;;;;21.57;51.21;99528.84;4978854;28;20097;-79
2023/06/20 03:02:51;;;;;;;11.63;9.95;;;;;;;21.51;51.64;99528.66;4993171;28;20477;-79
2023/06/20 03:05:19;;;;;;;10.10;9.05;;;;;;;21.52;51.48;99528.50;4993278;28;20062;-78
2023/06/20 03:07:47;;;;;;;13.07;9.80;;;;;;;21.51;51.71;99526.81;4959706;28;20060;-79
2023/06/20 03:10:15;;;;;;;11.52;9.82;;;;;;;21.50;51.71;99516.28;4989976;28;20094;-79
2023/06/20 03:12:41;;;;;;;11.23;9.70;;;;;;;21.48;51.82;99522.63;4962527;28;20398;-79
2023/06/20 03:15:08;;;;;;;11.00;9.77;;;;;;;21.46;51.92;99516.59;4983867;28;20076;-78
2023/06/20 03:17:35;;;;;;;12.43;9.43;;;;;;;21.46;51.70;99516.59;4973432;28;20055;-78
2023/06/20 03:20:05;;;;;;;11.68;9.70;;;;;;;21.46;52.34;99513.91;4973677;28;20486;-78
2023/06/20 03:22:32;;;;;;;10.63;9.38;;;;;;;21.48;52.20;99514.59;4974393;28;20057;-78
2023/06/20 03:24:58;;;;;;;11.27;9.00;;;;;;;21.50;52.34;99519.81;4955666;28;20062;-78
2023/06/20 03:27:24;;;;;;;11.35;9.73;;;;;;;21.51;52.54;99509.91;4973561;28;20061;-79
2023/06/20 03:29:51;;;;;;;15.00;9.48;;;;;;;21.53;52.70;99508.75;4973228;28;20506;-79
2023/06/20 03:32:17;;;;;;;11.98;10.52;;;;;;;21.55;52.38;99511.25;4986591;28;20054;-79
2023/06/20 03:34:44;;;;;;;12.13;8.90;;;;;;;21.56;52.71;99504.88;4992695;28;20440;-79
2023/06/20 03:37:11;;;;;;;12.90;9.85;;;;;;;21.59;52.51;99509.91;4993012;28;20065;-79
2023/06/20 03:39:37;;;;;;;12.07;9.23;;;;;;;21.60;52.77;99512.44;4992498;28;20061;-78
2023/06/20 03:42:04;;;;;;;11.80;9.90;;;;;;;21.63;52.68;99519.31;4983603;28;20051;-79
2023/06/20 03:44:31;;;;;;;15.57;10.65;;;;;;;21.66;52.63;99515.44;4972923;28;20050;-78
2023/06/20 03:46:57;;;;;;;11.90;9.95;;;;;;;21.67;52.94;99514.44;4972886;28;20090;-78
2023/06/20 03:49:24;;;;;;;13.13;10.15;;;;;;;21.67;53.02;99514.44;4972970;28;20054;-79
2023/06/20 03:51:50;;;;;;;11.57;9.90;;;;;;;21.70;52.98;99519.47;4976967;28;20054;-78
2023/06/20 03:54:16;;;;;;;12.20;10.05;;;;;;;21.70;52.95;99520.31;4992298;28;20493;-78
2023/06/20 03:56:43;;;;;;;12.40;9.70;;;;;;;21.73;53.54;99520.03;4992212;28;20060;-79
2023/06/20 03:59:09;;;;;;;10.00;9.00;;;;;;;21.77;53.30;99514.31;4992295;28;20065;-79
2023/06/20 04:01:35;;;;;;;12.27;9.10;;;;;;;21.78;53.57;99518.66;4992287;28;20061;-78
2023/06/20 04:04:02;;;;;;;10.60;9.45;;;;;;;21.79;53.24;99526.53;4983965;28;20051;-78
2023/06/20 04:06:31;;;;;;;11.52;9.93;;;;;;;21.81;53.47;99531.72;4991785;28;20069;-78
2023/06/20 04:08:58;;;;;;;11.10;9.88;;;;;;;21.83;53.57;99533.25;4990752;28;20061;-79
2023/06/20 04:11:25;;;;;;;11.43;9.88;;;;;;;21.86;53.67;99537.44;4991939;28;20462;-78
2023/06/20 04:13:51;;;;;;;11.52;10.07;;;;;;;21.87;53.71;99539.13;4985628;28;20074;-79
2023/06/20 04:16:18;;;;;;;10.80;9.70;;;;;;;21.90;53.57;99546.00;4972381;28;20418;-78
2023/06/20 04:18:44;;;;;;;11.73;9.63;;;;;;;21.92;53.66;99557.38;4955438;28;20117;-79
2023/06/20 04:21:10;;;;;;;11.57;10.38;;;;;;;21.93;53.64;99554.53;4972277;28;20050;-79
2023/06/20 04:23:37;;;;;;;11.13;9.70;;;;;;;21.97;53.64;99571.94;4974144;28;20198;-79
2023/06/20 04:26:04;;;;;;;11.70;9.75;;;;;;;21.99;53.61;99564.56;4974582;28;20054;-79
2023/06/20 04:28:30;;;;;;;11.07;9.68;;;;;;;22.02;53.61;99558.06;4991284;28;20057;-79
2023/06/20 04:30:56;;;;;;;12.23;9.52;;;;;;;22.06;53.61;99553.19;4991797;28;20061;-79
2023/06/20 04:33:23;;;;;;;10.70;9.60;;;;;;;22.09;53.76;99552.84;4991588;28;20058;-78
2023/06/20 04:35:49;;;;;;;10.57;9.15;;;;;;;22.12;53.86;99550.66;4963070;28;20425;-78
2023/06/20 04:38:16;;;;;;;12.55;9.77;;;;;;;22.15;53.92;99554.84;4987400;28;20501;-79
2023/06/20 04:40:42;;;;;;;10.77;9.52;;;;;;;22.18;54.22;99554.53;4972256;28;20062;-79
2023/06/20 04:43:09;;;;;;;10.82;9.73;;;;;;;22.20;54.16;99552.50;4954879;28;20057;-79
2023/06/20 04:45:38;;;;;;;11.85;9.38;;;;;;;22.21;54.12;99546.13;4983676;28;20054;-78
2023/06/20 04:48:05;;;;;;;9.68;8.68;;;;;;;22.23;54.14;99551.31;4991293;28;20090;-78
2023/06/20 04:50:31;;;;;;;10.93;9.40;;;;;;;22.23;54.37;99556.69;4991491;28;20128;-79
2023/06/20 04:52:58;;;;;;;10.65;9.43;;;;;;;22.23;54.35;99554.84;4991533;28;20058;-79
2023/06/20 04:55:24;;;;;;;11.88;9.77;;;;;;;22.22;54.78;99550.50;4983293;28;20051;-79
2023/06/20 04:57:54;;;;;;;9.60;8.63;;;;;;;22.22;54.87;99550.50;4971953;28;20059;-79
2023/06/20 05:00:20;;;;;;;10.07;8.93;;;;;;;22.22;55.54;99555.88;4978403;28;20046;-79
2023/06/20 05:02:47;;;;;;;11.60;9.02;;;;;;;22.22;55.86;99541.59;4991969;28;20149;-78
2023/06/20 05:05:13;;;;;;;9.75;7.72;;;;;;;22.22;55.84;99547.81;4991025;28;20090;-78
2023/06/20 05:07:41;;;;;;;10.60;7.95;;;;;;;22.23;55.92;99543.28;4991113;28;20450;-78
2023/06/20 05:10:08;;;;;;;8.75;7.78;;;;;;;22.22;55.94;99544.28;4971380;28;20057;-78
2023/06/20 05:12:34;;;;;;;9.65;8.57;;;;;;;22.23;56.38;99545.97;4971815;28;20055;-78
2023/06/20 05:15:00;;;;;;;9.23;8.15;;;;;;;22.22;56.10;99541.59;4971651;28;20047;-78
2023/06/20 05:17:27;;;;;;;8.60;7.80;;;;;;;22.21;56.21;99534.59;4954255;28;20067;-78
2023/06/20 05:19:53;;;;;;;12.48;8.30;;;;;;;22.19;56.23;99540.09;4971543;28;20074;-78
2023/06/20 05:22:20;;;;;;;11.82;8.90;;;;;;;22.17;56.63;99542.13;4988216;28;20062;-78
2023/06/20 05:24:47;;;;;;;9.25;8.35;;;;;;;22.12;56.63;99537.25;4978998;28;20053;-78
2023/06/20 05:27:14;;;;;;;9.05;7.88;;;;;;;22.10;56.81;99543.81;4971488;28;20150;-78
2023/06/20 05:29:40;;;;;;;10.07;8.65;;;;;;;22.08;57.21;99540.44;4954313;28;20058;-78
2023/06/20 05:32:07;;;;;;;8.48;7.55;;;;;;;22.07;57.36;99533.41;4966275;28;20063;-79
2023/06/20 05:34:34;;;;;;;9.90;8.20;;;;;;;22.06;57.69;99531.75;4991076;28;20105;-78
2023/06/20 05:37:00;;;;;;;9.05;7.70;;;;;;;22.06;57.82;99518.34;4990860;28;20086;-78
2023/06/20 05:39:27;;;;;;;9.40;7.13;;;;;;;22.06;58.22;99521.03;4973638;28;20061;-78
2023/06/20 05:41:56;;;;;;;7.82;7.07;;;;;;;22.07;58.68;99514.66;4985891;28;20566;-78
2023/06/20 05:44:22;;;;;;;8.63;7.80;;;;;;;22.08;58.56;99514.50;4975005;28;20050;-78
2023/06/20 05:46:49;;;;;;;10.98;8.35;;;;;;;22.11;58.78;99513.31;4975304;28;20058;-86
2023/06/20 05:49:16;;;;;;;9.63;7.90;;;;;;;22.13;59.03;99519.34;4958630;28;20540;-80
2023/06/20 05:51:44;;;;;;;10.52;8.05;;;;;;;22.15;59.05;99514.66;4978610;28;20054;-80
2023/06/20 05:54:10;;;;;;;8.95;7.70;;;;;;;22.17;59.34;99520.69;4994680;28;20141;-79
2023/06/20 05:56:37;;;;;;;10.80;8.35;;;;;;;22.21;59.48;99523.84;4977399;28;20062;-79
2023/06/20 05:59:04;;;;;;;12.85;8.60;;;;;;;22.23;59.33;99536.09;4977351;28;20113;-79
2023/06/20 06:01:30;;;;;;;10.95;8.05;;;;;;;22.26;59.48;99525.03;4982238;28;20054;-79
2023/06/20 06:03:57;;;;;;;9.27;8.23;;;;;;;22.29;59.41;99529.22;4994647;28;20047;-79
2023/06/20 06:06:24;;;;;;;10.13;7.65;;;;;;;22.31;59.65;99523.69;4976812;28;20058;-79
2023/06/20 06:08:50;;;;;;;10.90;7.18;;;;;;;22.33;59.77;99517.13;4994251;28;20432;-79
2023/06/20 06:11:17;;;;;;;8.63;7.50;;;;;;;22.37;59.76;99509.59;5092131;23;20057;-80
2023/06/20 06:13:43;;;;;;;8.25;7.28;;;;;;;22.40;60.04;99495.84;4969420;28;20066;-80
2023/06/20 06:16:10;;;;;;;8.63;7.07;;;;;;;22.44;60.22;99499.00;4975189;28;20055;-79
2023/06/20 06:18:37;;;;;;;10.32;6.78;;;;;;;22.48;60.10;99506.53;4975129;28;20098;-79
2023/06/20 06:21:03;;;;;;;7.65;6.78;;;;;;;22.51;59.93;99511.53;4974921;28;20058;-80
2023/06/20 06:23:33;;;;;;;8.45;6.95;;;;;;;22.53;60.85;99508.69;4977785;28;20047;-80
2023/06/20 06:26:00;;;;;;;7.00;6.30;;;;;;;22.57;60.12;99503.88;4975731;28;20055;-78
2023/06/20 06:28:28;;;;;;;8.43;6.45;;;;;;;22.60;59.91;99511.56;4994211;28;20113;-80
2023/06/20 06:31:00;;;;;;;8.80;6.00;;;;;;;22.61;60.48;99514.06;4994655;28;20051;-79
2023/06/20 06:33:28;;;;;;;6.70;5.75;;;;;;;22.64;60.06;99519.09;4994590;28;20718;-80
2023/06/20 06:35:55;;;;;;;6.88;6.15;;;;;;;22.67;60.16;99523.28;4994395;28;20054;-82
2023/06/20 06:38:22;;;;;;;6.63;5.88;;;;;;;22.69;60.12;99526.63;4979215;28;20055;-80
2023/06/20 06:40:54;;;;;;;6.47;5.65;;;;;;;22.71;59.83;99532.66;4987392;28;20607;-83
2023/06/20 06:43:21;;;;;;;6.75;6.05;;;;;;;22.75;59.87;99536.66;4994500;28;20051;-82
2023/06/20 06:45:48;;;;;;;6.93;6.22;;;;;;;22.78;59.68;99541.69;4980723;28;20100;-81
2023/06/20 06:48:14;;;;;;;6.28;5.68;;;;;;;22.82;59.83;99544.03;4974592;28;20074;-80
2023/06/20 06:50:43;;;;;;;7.07;6.38;;;;;;;22.86;59.79;99532.78;4974982;28;20051;-82
2023/06/20 06:53:11;;;;;;;6.95;6.28;;;;;;;22.90;60.01;99528.75;4974278;28;20059;-83
2023/06/20 06:55:38;;;;;;;7.50;6.70;;;;;;;22.95;59.91;99524.69;4982145;28;20421;-80
2023/06/20 06:58:04;;;;;;;6.72;6.03;;;;;;;23.00;60.20;99523.16;4993408;28;20066;-82
2023/06/20 07:00:32;;;;;;;7.50;6.72;;;;;;;23.04;60.08;99519.13;4985457;28;20054;-83
2023/06/20 07:02:59;;;;;;;8.77;7.05;;;;;;;23.11;59.89;99521.94;4974603;28;20090;-80
2023/06/20 07:05:26;;;;;;;7.80;6.65;;;;;;;23.16;60.00;99526.75;4973180;28;20057;-81
2023/06/20 07:07:53;;;;;;;7.15;6.50;;;;;;;23.21;59.54;99520.88;4974357;28;20082;-82
2023/06/20 07:10:20;;;;;;;7.78;7.07;;;;;;;23.26;59.69;99516.66;4977944;28;20058;-81
2023/06/20 07:12:46;;;;;;;8.40;7.43;;;;;;;23.32;59.81;99522.31;4993850;28;20418;-80
2023/06/20 07:15:13;;;;;;;8.20;7.40;;;;;;;23.36;59.76;99523.69;4993711;28;20645;-83
2023/06/20 07:17:40;;;;;;;8.45;7.65;;;;;;;23.41;59.74;99526.66;4993635;28;20113;-81
2023/06/20 07:20:09;;;;;;;8.43;7.50;;;;;;;23.48;59.50;99524.94;4993461;28;20157;-82
2023/06/20 07:22:37;;;;;;;8.15;7.32;;;;;;;23.54;60.08;99526.91;4979243;28;20054;-83
2023/06/20 07:25:04;;;;;;;9.48;7.75;;;;;;;23.61;60.17;99527.03;4976791;28;20515;-83
2023/06/20 07:27:31;;;;;;;7.50;6.80;;;;;;;23.70;59.96;99533.19;4973866;28;20125;-83
2023/06/20 07:29:57;;;;;;;8.25;7.25;;;;;;;23.79;60.24;99532.13;4974269;28;20059;-83
2023/06/20 07:32:24;;;;;;;7.63;6.82;;;;;;;23.90;60.39;99533.53;4974049;28;20051;-83
2023/06/20 07:34:51;;;;;;;7.05;6.43;;;;;;;24.02;60.03;99525.03;4977258;28;20059;-80
2023/06/20 07:37:17;;;;;;;7.97;7.07;;;;;;;24.15;59.96;99536.03;4971401;28;20145;-79
2023/06/20 07:39:46;;;;;;;7.35;6.45;;;;;;;24.27;59.68;99536.44;4993998;28;20054;-82
2023/06/20 07:42:13;;;;;;;10.43;7.32;;;;;;;24.41;59.30;99528.56;4993435;28;20058;-80
2023/06/20 07:44:40;;;;;;;7.45;6.68;;;;;;;24.53;59.52;99531.63;4993406;28;20054;-76
2023/06/20 07:47:07;;;;;;;7.90;7.10;;;;;;;24.63;58.92;99518.72;4982569;28;20059;-83
2023/06/20 07:49:33;;;;;;;7.55;6.80;;;;;;;24.71;58.43;99521.31;4973778;28;20047;-83
2023/06/20 07:52:00;;;;;;;11.02;7.45;;;;;;;24.79;58.55;99525.81;4973874;28;20058;-80
2023/06/20 07:54:27;;;;;;;7.25;6.40;;;;;;;24.88;58.78;99523.00;4973754;28;20086;-82
2023/06/20 07:56:53;;;;;;;8.55;7.28;;;;;;;24.93;58.43;99513.34;4979181;28;20137;-79
2023/06/20 07:59:20;;;;;;;7.55;6.85;;;;;;;25.01;58.40;99517.81;4993304;28;20113;-81
2023/06/20 08:01:47;;;;;;;7.32;6.63;;;;;;;25.04;57.98;99512.03;4991800;28;20089;-82
2023/06/20 08:04:13;;;;;;;9.10;7.53;;;;;;;25.11;57.75;99517.50;4992012;28;20050;-82
2023/06/20 08:06:40;;;;;;;7.97;6.80;;;;;;;25.15;57.81;99524.19;4991230;28;20058;-82
2023/06/20 08:09:06;;;;;;;7.93;7.13;;;;;;;25.19;57.68;99524.66;4973505;28;20063;-81
2023/06/20 08:11:34;;;;;;;7.70;7.00;;;;;;;25.21;57.47;99512.66;4973221;28;20074;-81
2023/06/20 08:14:01;;;;;;;7.88;7.15;;;;;;;25.24;56.98;99516.84;4973226;28;20065;-82
2023/06/20 08:16:28;;;;;;;8.50;7.32;;;;;;;25.24;57.11;99516.84;4971914;28;20082;-82
2023/06/20 08:18:55;;;;;;;9.70;7.95;;;;;;;25.24;57.05;99516.84;4989233;28;20050;-78
2023/06/20 08:21:21;;;;;;;8.50;7.10;;;;;;;25.23;57.00;99509.78;4992928;28;20058;-81
2023/06/20 08:23:48;;;;;;;8.95;7.47;;;;;;;25.24;57.16;99506.06;4992348;28;20483;-82
2023/06/20 08:26:14;;;;;;;7.70;7.00;;;;;;;25.26;57.09;99509.38;4992487;28;20466;-82
2023/06/20 08:28:41;;;;;;;8.70;7.90;;;;;;;25.29;57.34;99503.63;4978583;28;20062;-79
2023/06/20 08:31:08;;;;;;;8.48;7.60;;;;;;;25.32;57.53;99500.56;4972924;28;20094;-81
2023/06/20 08:33:34;;;;;;;8.23;7.32;;;;;;;25.36;57.19;99491.06;4972893;28;20149;-81
2023/06/20 08:36:01;;;;;;;8.73;7.82;;;;;;;25.42;57.49;99491.31;4972676;28;20054;-83
2023/06/20 08:38:28;;;;;;;8.35;7.55;;;;;;;25.50;57.72;99493.88;4980427;28;20113;-81
2023/06/20 08:40:55;;;;;;;8.00;7.30;;;;;;;25.58;57.37;99504.56;4990944;28;20507;-81
2023/06/20 08:43:22;;;;;;;8.07;7.28;;;;;;;25.66;57.83;99505.44;4992209;28;20058;-82
2023/06/20 08:45:48;;;;;;;8.32;7.57;;;;;;;25.75;57.53;99506.97;4991966;28;20062;-81
2023/06/20 08:48:15;;;;;;;8.90;8.05;;;;;;;25.82;57.10;99502.50;4987187;28;20393;-81
2023/06/20 08:50:47;;;;;;;7.80;7.07;;;;;;;25.91;57.26;99502.34;4977710;28;20055;-79
2023/06/20 08:53:15;;;;;;;8.48;7.47;;;;;;;25.97;57.22;99505.09;4980311;28;20499;-81
2023/06/20 08:55:44;;;;;;;9.00;7.55;;;;;;;26.06;57.31;99502.28;4971448;28;20159;-81
2023/06/20 08:58:11;;;;;;;7.97;7.18;;;;;;;26.15;57.20;99510.03;4970200;28;20699;-78
2023/06/20 09:00:40;;;;;;;8.40;7.60;;;;;;;26.25;56.82;99511.53;4972817;28;20055;-83
2023/06/20 09:03:07;;;;;;;8.50;7.68;;;;;;;26.33;56.50;99503.31;4972363;28;20050;-81
2023/06/20 09:05:42;;;;;;;8.77;7.45;;;;;;;26.39;56.50;99499.81;4972050;28;20051;-82
2023/06/20 09:08:15;;;;;;;9.35;8.25;;;;;;;26.47;56.02;99492.63;4972040;28;20057;-84
2023/06/20 09:10:44;;;;;;;8.77;7.60;;;;;;;26.56;55.73;99488.72;4977828;28;20054;-83
2023/06/20 09:13:12;;;;;;;8.07;7.38;;;;;;;26.61;55.75;99488.13;4991636;28;20141;-80
2023/06/20 09:15:41;;;;;;;10.18;7.70;;;;;;;26.64;55.48;99498.50;4991528;28;20086;-83
2023/06/20 09:18:13;;;;;;;8.02;7.22;;;;;;;26.66;55.44;99485.66;4991788;28;20699;-83
2023/06/20 09:20:42;;;;;;;8.00;7.30;;;;;;;26.71;55.50;99483.19;4991490;28;20523;-80
2023/06/20 09:23:09;;;;;;;8.85;8.05;;;;;;;26.77;55.77;99486.94;4974265;28;20054;-83
2023/06/20 09:25:39;;;;;;;9.88;8.88;;;;;;;26.82;56.54;99484.47;4990299;28;20057;-80
2023/06/20 09:28:17;;;;;;;9.02;8.18;;;;;;;26.87;57.12;99478.47;4989803;28;20547;-81
2023/06/20 09:30:47;;;;;;;11.75;8.02;;;;;;;26.99;56.66;99473.34;4990130;28;20046;-83
2023/06/20 09:33:15;;;;;;;8.82;7.97;;;;;;;27.10;56.68;99477.34;4970984;28;20055;-81
2023/06/20 09:35:42;;;;;;;10.50;8.48;;;;;;;27.21;56.63;99481.31;4971803;28;20055;-82
2023/06/20 09:38:09;;;;;;;9.45;8.65;;;;;;;27.31;56.25;99484.44;4971673;28;20121;-81
2023/06/20 09:40:43;;;;;;;9.10;8.30;;;;;;;27.40;56.59;99480.50;4971312;28;20054;-80
2023/06/20 09:43:10;;;;;;;9.13;8.30;;;;;;;27.57;56.83;99474.72;4972469;28;20054;-82
2023/06/20 09:45:37;;;;;;;9.07;8.27;;;;;;;27.72;56.04;99479.13;4991348;28;20085;-79
2023/06/20 09:48:06;;;;;;;13.57;9.23;;;;;;;27.86;55.17;99471.81;4991281;28;20078;-80
2023/06/20 09:50:35;;;;;;;9.82;8.93;;;;;;;28.00;55.80;99484.31;4991049;28;20050;-85
2023/06/20 09:53:28;;;;;;;9.63;8.68;;;;;;;28.13;55.11;99474.50;4977126;28;20063;-83
2023/06/20 09:55:57;;;;;;;8.52;7.60;;;;;;;28.32;54.17;99468.25;4971926;28;20047;-83
2023/06/20 09:58:25;;;;;;;8.68;7.88;;;;;;;28.46;53.96;99481.75;4971734;28;20555;-83
2023/06/20 10:00:53;;;;;;;8.70;7.90;;;;;;;28.59;54.00;99475.50;4972037;28;20054;-82
2023/06/20 10:03:20;;;;;;;9.18;8.27;;;;;;;28.71;53.62;99476.47;4984898;28;20134;-83
2023/06/20 10:05:47;;;;;;;8.93;8.02;;;;;;;28.85;54.63;99473.69;4991300;28;20059;-83
2023/06/20 10:08:16;;;;;;;8.88;7.30;;;;;;;29.01;54.61;99472.41;4991209;28;20046;-83
2023/06/20 10:10:42;;;;;;;15.95;7.65;;;;;;;29.19;54.31;99468.97;4991268;28;20123;-81
2023/06/20 10:13:11;;;;;;;8.35;7.63;;;;;;;29.38;53.48;99477.22;4982119;28;20066;-83
2023/06/20 10:15:39;;;;;;;8.68;7.78;;;;;;;29.60;52.76;99476.88;4972313;28;20487;-83
2023/06/20 10:18:38;;;;;;;7.72;7.05;;;;;;;29.78;52.36;99474.22;4971442;28;20065;-84
2023/06/20 10:21:13;;;;;;;7.50;6.72;;;;;;;29.99;51.67;99468.59;4971892;28;20138;-82
2023/06/20 10:23:40;;;;;;;8.70;7.90;;;;;;;30.14;51.57;99476.41;4971834;28;20050;-83
2023/06/20 10:26:08;;;;;;;8.77;7.88;;;;;;;30.26;51.02;99477.34;4986356;28;20174;-83
2023/06/20 10:28:39;;;;;;;8.35;7.60;;;;;;;30.35;49.73;99477.06;4977476;28;20046;-84
2023/06/20 10:31:06;;;;;;;7.65;6.95;;;;;;;30.43;50.29;99465.88;4994850;28;20047;-83
2023/06/20 10:33:41;;;;;;;8.82;7.32;;;;;;;30.49;50.05;99459.53;4994483;28;20105;-83
2023/06/20 10:36:17;;;;;;;8.98;8.15;;;;;;;30.49;49.58;99461.44;4982027;28;20419;-83
2023/06/20 10:38:49;;;;;;;9.20;8.25;;;;;;;30.49;48.89;99459.53;4991716;28;20061;-84
2023/06/20 10:41:28;;;;;;;8.02;7.32;;;;;;;30.47;49.10;99458.94;4994765;28;20082;-82
2023/06/20 10:44:00;;;;;;;7.82;7.05;;;;;;;30.47;48.95;99456.25;4994540;28;20062;-83
2023/06/20 10:46:36;;;;;;;7.55;6.95;;;;;;;30.47;49.70;99450.81;4981904;28;20055;-82
2023/06/20 10:49:03;;;;;;;8.23;7.43;;;;;;;30.53;49.20;99454.47;4974958;28;20054;-83
2023/06/20 10:51:30;;;;;;;9.32;8.43;;;;;;;30.52;48.77;99450.94;4958187;28;20065;-82
2023/06/20 10:54:13;;;;;;;8.27;7.50;;;;;;;30.43;49.15;99452.31;4975724;28;20051;-80
2023/06/20 10:56:46;;;;;;;7.97;7.22;;;;;;;30.45;49.21;99452.91;4968540;28;20475;-83
2023/06/20 10:59:15;;;;;;;8.35;7.60;;;;;;;30.42;49.03;99447.91;4994421;28;20058;-82
2023/06/20 11:01:42;;;;;;;7.82;7.03;;;;;;;30.46;49.61;99451.84;4976059;28;20055;-82
2023/06/20 11:04:12;;;;;;;9.32;7.15;;;;;;;30.55;49.65;99436.91;4974817;28;20055;-82
2023/06/20 11:06:39;;;;;;;8.15;7.45;;;;;;;30.80;50.79;99432.47;4974402;28;20051;-82
2023/06/20 11:09:18;;;;;;;7.60;6.93;;;;;;;31.17;50.86;99442.41;4957577;28;20138;-84
2023/06/20 11:11:47;;;;;;;8.02;6.82;;;;;;;31.67;50.68;99446.66;4988024;28;20056;-84
2023/06/20 11:14:19;;;;;;;6.93;6.22;;;;;;;32.22;49.29;99436.47;4994073;28;20134;-84
2023/06/20 11:16:47;;;;;;;6.63;6.03;;;;;;;32.81;48.98;99442.03;4993566;28;20479;-82
2023/06/20 11:19:15;;;;;;;5.28;4.78;;;;;;;33.36;48.19;99440.59;4994049;28;20058;-82
2023/06/20 11:21:55;;;;;;;5.03;4.63;;;;;;;33.94;46.02;99436.88;4980904;28;20415;-84
2023/06/20 11:24:44;;;;;;;4.60;4.25;;;;;;;34.51;45.17;99436.78;4988513;28;20604;-83
2023/06/20 11:27:14;;;;;;;5.18;4.70;;;;;;;34.98;43.91;99423.66;4993538;28;20073;-82
2023/06/20 11:29:48;;;;;;;4.88;4.00;;;;;;;35.37;42.21;99423.50;4993957;28;20458;-84
2023/06/20 11:32:15;;;;;;;7.07;5.07;;;;;;;35.67;41.81;99427.56;4993716;28;20109;-81
2023/06/20 11:35:20;;;;;;;5.53;5.03;;;;;;;35.87;42.17;99428.78;4980637;28;20058;-85
2023/06/20 11:37:47;;;;;;;4.30;3.90;;;;;;;36.07;40.41;99439.03;4961527;28;20267;-82